Ana Sayfa
METAR-TAF:

METAR-TAF

Havaalanları :

Gaithersburg, Maryland, Amerika Birleşik Devletleri

Enlem: 39-10-06N, Boylam: 077-09-58W, yükseklik: 164 m

Güncel hava durumu gözlemi

Rapor saat 20:56 UTC de 10 dakika önce yapıldı.
Rüzgar güney/güneybatıdan 6 kt
Sıcaklık 14°C
Nem 14%
Basınç 1020 hPa
Görüş mesafesi: 16.1 km
Açık gökyüzü

METAR: KGAI 232056Z AUTO 20006KT 10SM CLR 14/M13 A3011 RMK AO2 SLP215 T01391133 56024

Saat: 16:06 (21:06 UTC)


TAF: eksik

4.000'den fazla havaalanı için hava durumu gözlemleri ve tahminleri (METAR ve TAF raporları).

Kullanılabilir istasyonlar harita üzerinde sarı ve kırmızı noktalarla gösterilir.

İstasyonun adını görmek için fareyi noktanın üzerinde gezdirin.

Sonrasında hava gözlem ve tahminlerini görmek için tıklayın.

Haritayı değiştirmek için: yaklaştırmak için siyah artı işaretli yeşil düğmeye ve uzaklaştırmak için de eksi işaretli düğmeye hızla tıklayın; bitişik haritalar için yeşil okları kullanın.


METAR-TAF: